Time;durP1;ratioP1;P1;durP2;ratioP2;P2;SDS_P1;SDS_P2;PMS_P1;PMS_P2;Temp;Humidity;BMP_temperature;BMP_pressure;BME280_temperature;BME280_humidity;BME280_pressure;Samples;Min_cycle;Max_cycle;Signal;HPM_P1;HPM_P2
2023/09/30 03:30:32;;;;;;;5.03;2.30;;;14.70;99.90;;;;;;6183487;22;20507;31
2023/09/30 03:32:59;;;;;;;3.53;2.50;;;14.60;99.90;;;;;;4979278;28;20991;-67
2023/09/30 03:35:26;;;;;;;3.37;2.60;;;14.70;99.90;;;;;;4975765;28;20678;-66
2023/09/30 03:37:52;;;;;;;3.83;2.00;;;14.70;99.90;;;;;;4976861;28;21027;-66
2023/09/30 03:40:19;;;;;;;3.53;2.70;;;14.70;99.90;;;;;;4982247;28;20466;-66
2023/09/30 03:42:49;;;;;;;4.07;2.40;;;14.70;99.90;;;;;;4971948;28;20474;-66
2023/09/30 03:45:16;;;;;;;3.30;2.00;;;14.70;99.90;;;;;;4971747;28;20497;-66
2023/09/30 03:47:45;;;;;;;2.30;2.10;;;14.70;99.90;;;;;;4971959;28;20470;-66
2023/09/30 03:50:14;;;;;;;2.60;2.23;;;14.60;99.90;;;;;;4971828;28;20547;-66
2023/09/30 03:52:44;;;;;;;2.00;1.67;;;14.70;99.90;;;;;;4972370;28;20959;-66
2023/09/30 03:55:11;;;;;;;3.07;2.17;;;14.60;99.90;;;;;;4971715;28;20471;-66
2023/09/30 03:57:38;;;;;;;2.60;1.97;;;14.60;99.90;;;;;;4972157;28;20837;-66
2023/09/30 04:00:06;;;;;;;3.03;2.70;;;14.60;99.90;;;;;;4971913;28;20956;-66
2023/09/30 04:02:33;;;;;;;2.97;2.00;;;14.60;99.90;;;;;;4972048;28;20502;-66
2023/09/30 04:05:04;;;;;;;4.50;2.53;;;14.60;99.90;;;;;;4971367;28;20468;-66
2023/09/30 04:07:31;;;;;;;3.70;2.50;;;14.60;99.90;;;;;;4971986;28;20463;-66
2023/09/30 04:09:57;;;;;;;4.23;2.50;;;14.60;99.90;;;;;;4971675;28;20510;-66
2023/09/30 04:12:24;;;;;;;3.40;2.50;;;14.60;99.90;;;;;;4971824;28;20494;-66
2023/09/30 04:14:52;;;;;;;5.90;3.10;;;14.60;99.90;;;;;;4971249;28;20753;-66
2023/09/30 04:17:19;;;;;;;2.10;1.70;;;14.60;99.90;;;;;;4972149;28;20541;-66
2023/09/30 04:19:50;;;;;;;3.90;2.43;;;14.60;99.90;;;;;;4971931;28;20463;-66
2023/09/30 04:22:20;;;;;;;3.17;2.53;;;14.50;99.90;;;;;;4972000;28;20484;-66
2023/09/30 04:24:49;;;;;;;3.40;2.27;;;14.50;99.90;;;;;;4971390;28;20556;-66
2023/09/30 04:27:16;;;;;;;1.93;1.73;;;14.50;99.90;;;;;;4972030;28;20517;-66
2023/09/30 04:29:42;;;;;;;4.33;2.67;;;14.50;99.90;;;;;;4971760;28;20495;-66
2023/09/30 04:32:09;;;;;;;4.27;2.67;;;14.50;99.90;;;;;;4971486;28;20499;-66
2023/09/30 04:34:36;;;;;;;3.43;2.50;;;14.50;99.90;;;;;;4971406;28;20472;-66
2023/09/30 04:37:03;;;;;;;4.10;2.23;;;14.50;99.90;;;;;;4971346;28;20469;-66
2023/09/30 04:39:35;;;;;;;5.30;2.23;;;14.50;99.90;;;;;;4971744;28;20468;-66
2023/09/30 04:42:03;;;;;;;5.23;2.80;;;14.50;99.90;;;;;;4971468;28;20541;-67
2023/09/30 04:44:30;;;;;;;3.87;2.20;;;14.50;99.90;;;;;;4971102;28;20479;-67
2023/09/30 04:46:57;;;;;;;3.00;2.67;;;14.50;99.90;;;;;;4971436;28;20471;-67
2023/09/30 04:49:25;;;;;;;3.10;2.47;;;14.50;99.90;;;;;;4971573;28;20483;-67
2023/09/30 04:51:51;;;;;;;2.93;2.20;;;14.50;99.90;;;;;;4970739;28;20841;-67
2023/09/30 04:54:18;;;;;;;2.83;2.10;;;14.50;99.90;;;;;;4969700;28;20463;-67
2023/09/30 04:56:47;;;;;;;4.77;2.30;;;14.50;99.90;;;;;;4970548;28;20956;-67
2023/09/30 04:59:13;;;;;;;3.53;2.20;;;14.40;99.90;;;;;;4971134;28;20467;-67
2023/09/30 05:01:40;;;;;;;2.83;2.00;;;14.40;99.90;;;;;;4972025;28;20511;-66
2023/09/30 05:04:07;;;;;;;2.93;2.50;;;14.50;99.90;;;;;;4974556;28;20472;-66
2023/09/30 05:06:34;;;;;;;3.80;2.50;;;14.50;99.90;;;;;;4983746;28;20527;-67
2023/09/30 05:09:00;;;;;;;3.20;2.33;;;14.40;99.90;;;;;;4987650;28;20466;-67
2023/09/30 05:11:27;;;;;;;2.60;2.03;;;14.40;99.90;;;;;;4978124;28;20490;-67
2023/09/30 05:13:55;;;;;;;4.03;2.80;;;14.50;99.90;;;;;;4974367;28;20469;-67
2023/09/30 05:16:22;;;;;;;3.77;2.00;;;14.50;99.90;;;;;;4974393;28;20953;-67
2023/09/30 05:18:49;;;;;;;2.97;2.50;;;14.50;99.90;;;;;;4974741;28;20459;-67
2023/09/30 05:21:15;;;;;;;3.90;2.07;;;14.50;99.90;;;;;;4980172;28;20478;-66
2023/09/30 05:23:42;;;;;;;4.53;2.23;;;14.50;99.90;;;;;;4979610;28;20464;-67
2023/09/30 05:26:09;;;;;;;2.07;1.73;;;14.40;99.90;;;;;;4974223;28;20953;-66
2023/09/30 05:28:36;;;;;;;4.23;2.17;;;14.40;99.90;;;;;;4974704;28;20474;-67
2023/09/30 05:31:04;;;;;;;3.10;2.40;;;14.50;99.90;;;;;;4974224;28;20592;-67
2023/09/30 05:33:30;;;;;;;3.10;2.47;;;14.40;99.90;;;;;;4974653;28;20470;-67
2023/09/30 05:35:57;;;;;;;3.00;2.33;;;14.40;99.90;;;;;;4973840;28;20983;-66
2023/09/30 05:38:24;;;;;;;2.53;2.10;;;14.40;99.90;;;;;;4974656;28;20868;-67
2023/09/30 05:40:51;;;;;;;3.03;2.37;;;14.40;99.90;;;;;;4974297;28;20487;-67
2023/09/30 05:43:18;;;;;;;4.20;2.67;;;14.40;99.90;;;;;;4974005;28;20466;-67
2023/09/30 05:45:49;;;;;;;3.90;2.40;;;14.30;99.90;;;;;;4973781;28;20463;-67
2023/09/30 05:48:17;;;;;;;2.13;1.80;;;14.30;99.90;;;;;;4974207;28;20498;-67
2023/09/30 05:50:43;;;;;;;3.73;2.70;;;14.30;99.90;;;;;;4974135;28;20498;-66
2023/09/30 05:53:11;;;;;;;4.43;2.47;;;14.30;99.90;;;;;;4974186;28;20470;-67
2023/09/30 05:55:39;;;;;;;3.20;2.57;;;14.20;99.90;;;;;;4973546;28;20496;-67
2023/09/30 05:58:06;;;;;;;2.77;2.47;;;14.30;99.90;;;;;;4974124;28;20467;-67
2023/09/30 06:00:35;;;;;;;4.80;2.23;;;14.20;99.90;;;;;;4974079;28;20464;-67
2023/09/30 06:03:02;;;;;;;3.80;2.40;;;14.20;99.90;;;;;;4973758;28;20463;-67
2023/09/30 06:05:30;;;;;;;3.00;2.50;;;14.30;99.90;;;;;;4972790;28;20524;-66
2023/09/30 06:07:58;;;;;;;3.10;2.10;;;14.30;99.90;;;;;;4973788;28;20594;-66
2023/09/30 06:10:25;;;;;;;2.33;2.13;;;14.30;99.90;;;;;;4973781;28;20490;-66
2023/09/30 06:12:54;;;;;;;3.53;2.07;;;14.30;99.90;;;;;;4973314;28;21129;-66
2023/09/30 06:15:25;;;;;;;4.20;2.70;;;14.40;99.90;;;;;;4973276;28;20521;-66
2023/09/30 06:17:53;;;;;;;3.20;2.80;;;14.40;99.90;;;;;;4973782;28;20473;-66
2023/09/30 06:20:22;;;;;;;3.07;2.47;;;14.40;99.90;;;;;;4973576;28;20471;-66
2023/09/30 06:22:50;;;;;;;3.83;2.50;;;14.40;99.90;;;;;;4973480;28;20468;-66
2023/09/30 06:25:17;;;;;;;3.70;2.50;;;14.50;99.90;;;;;;4973086;28;20474;-65
2023/09/30 06:27:44;;;;;;;2.80;2.50;;;14.50;99.90;;;;;;4973505;28;20464;-65
2023/09/30 06:30:13;;;;;;;3.83;2.57;;;14.50;99.90;;;;;;4973495;28;20487;-65
2023/09/30 06:32:40;;;;;;;3.07;2.27;;;14.60;99.90;;;;;;4973250;28;20475;-66
2023/09/30 06:35:10;;;;;;;3.87;2.53;;;14.60;99.90;;;;;;4972762;28;20464;-66
2023/09/30 06:37:37;;;;;;;3.27;2.23;;;14.60;99.90;;;;;;4973483;28;20501;-66
2023/09/30 06:40:07;;;;;;;2.97;2.60;;;14.70;99.90;;;;;;4973063;28;20509;-66
2023/09/30 06:42:35;;;;;;;3.23;2.53;;;14.70;99.90;;;;;;4973258;28;20487;-66
2023/09/30 06:45:05;;;;;;;5.07;3.30;;;14.70;99.90;;;;;;4972444;28;20463;-66
2023/09/30 06:47:33;;;;;;;6.33;3.63;;;14.80;99.90;;;;;;4973550;28;20540;-66
2023/09/30 06:50:00;;;;;;;4.23;3.07;;;14.80;99.90;;;;;;4973084;28;20992;-66
2023/09/30 06:52:27;;;;;;;4.87;2.73;;;14.90;99.90;;;;;;4973042;28;20491;-66
2023/09/30 06:54:54;;;;;;;3.67;2.60;;;14.90;99.90;;;;;;4972645;28;20495;-66
2023/09/30 06:57:22;;;;;;;4.73;3.30;;;15.00;99.90;;;;;;4972795;28;20468;-66
2023/09/30 06:59:48;;;;;;;4.87;3.20;;;15.00;99.90;;;;;;4972804;28;20464;-66
2023/09/30 07:02:15;;;;;;;3.93;2.60;;;15.10;99.90;;;;;;4972640;28;20487;-66
2023/09/30 07:04:42;;;;;;;4.00;2.70;;;15.10;99.90;;;;;;4972358;28;20468;-66
2023/09/30 07:07:09;;;;;;;3.90;2.70;;;15.20;99.90;;;;;;4972857;28;20476;-66
2023/09/30 07:09:36;;;;;;;3.10;2.80;;;15.20;99.90;;;;;;4972669;28;20503;-66
2023/09/30 07:12:04;;;;;;;5.67;3.67;;;15.30;99.90;;;;;;4972600;28;20543;-66
2023/09/30 07:14:32;;;;;;;4.00;2.83;;;15.30;99.90;;;;;;4978996;28;20984;-65
2023/09/30 07:16:59;;;;;;;4.30;2.73;;;15.40;99.90;;;;;;4972550;28;20476;-66
2023/09/30 07:19:25;;;;;;;4.20;3.07;;;15.50;99.90;;;;;;4972431;28;20477;-66
2023/09/30 07:21:52;;;;;;;5.90;3.03;;;15.60;99.90;;;;;;4972429;28;20491;-66
2023/09/30 07:24:19;;;;;;;3.37;2.93;;;15.70;99.90;;;;;;4971437;28;20836;-66
2023/09/30 07:26:45;;;;;;;3.87;2.70;;;15.80;99.90;;;;;;4972438;28;20479;-66
2023/09/30 07:29:12;;;;;;;7.50;2.90;;;15.80;99.90;;;;;;4972458;28;20464;-66
2023/09/30 07:31:40;;;;;;;3.70;2.83;;;15.80;99.90;;;;;;4972289;28;20503;-66
2023/09/30 07:34:07;;;;;;;3.77;2.80;;;15.80;99.90;;;;;;4971823;28;20468;-66
2023/09/30 07:36:33;;;;;;;4.90;2.47;;;15.80;99.90;;;;;;4972370;28;20476;-65
2023/09/30 07:39:01;;;;;;;3.83;3.07;;;15.90;99.90;;;;;;4972342;28;20473;-66
2023/09/30 07:41:28;;;;;;;3.40;2.60;;;15.90;99.90;;;;;;4972016;28;20852;-65
2023/09/30 07:43:55;;;;;;;3.50;3.00;;;15.90;99.90;;;;;;4971997;28;20468;-65
2023/09/30 07:46:21;;;;;;;3.20;2.90;;;15.90;99.90;;;;;;4971770;28;20745;-65
2023/09/30 07:48:50;;;;;;;3.83;2.90;;;15.90;99.90;;;;;;4972119;28;20468;-66
2023/09/30 07:51:16;;;;;;;6.00;3.20;;;15.90;99.90;;;;;;4971946;28;20501;-65
2023/09/30 07:53:43;;;;;;;4.90;3.10;;;15.90;99.90;;;;;;4972271;28;20832;-65
2023/09/30 07:56:10;;;;;;;4.00;2.73;;;16.00;99.90;;;;;;4971600;28;20888;-66
2023/09/30 07:58:36;;;;;;;3.57;2.57;;;16.10;99.90;;;;;;4972029;28;20495;-66
2023/09/30 08:01:04;;;;;;;4.00;3.00;;;16.20;99.90;;;;;;4972320;28;20492;-67
2023/09/30 08:03:31;;;;;;;4.30;3.17;;;16.40;99.90;;;;;;4971878;28;20475;-65
2023/09/30 08:05:59;;;;;;;5.60;3.40;;;16.40;99.90;;;;;;4971576;28;20528;-65
2023/09/30 08:08:25;;;;;;;4.03;2.97;;;16.50;99.90;;;;;;4971728;28;20467;-64
2023/09/30 08:10:55;;;;;;;3.70;3.07;;;16.70;99.90;;;;;;4971675;28;21026;-65
2023/09/30 08:13:22;;;;;;;3.50;2.90;;;16.80;99.90;;;;;;4971953;28;20805;-65
2023/09/30 08:15:49;;;;;;;3.77;2.70;;;16.90;99.90;;;;;;4971574;28;20857;-65
2023/09/30 08:18:16;;;;;;;6.63;3.60;;;17.00;99.90;;;;;;4971635;28;20983;-65
2023/09/30 08:20:43;;;;;;;4.00;3.23;;;17.10;99.90;;;;;;4971826;28;20490;-65
2023/09/30 08:23:11;;;;;;;4.57;3.13;;;17.20;99.90;;;;;;4971740;28;20466;-65
2023/09/30 08:25:38;;;;;;;7.33;3.10;;;17.40;99.90;;;;;;4978936;28;20594;-65
2023/09/30 08:28:05;;;;;;;3.33;2.40;;;17.60;99.90;;;;;;4971891;28;20825;-65
2023/09/30 08:30:33;;;;;;;3.70;2.73;;;17.80;99.90;;;;;;4971397;28;20491;-65
2023/09/30 08:33:00;;;;;;;4.23;2.40;;;18.00;99.90;;;;;;4971635;28;20470;-65
2023/09/30 08:35:27;;;;;;;3.53;2.40;;;18.10;99.90;;;;;;4971469;28;20475;-65
2023/09/30 08:37:54;;;;;;;2.93;2.60;;;18.20;99.90;;;;;;4975326;28;20464;-65
2023/09/30 08:40:23;;;;;;;2.80;2.47;;;18.20;99.90;;;;;;4975096;28;20547;-65
2023/09/30 08:42:53;;;;;;;5.30;4.20;;;18.20;99.90;;;;;;4975198;28;20464;-65
2023/09/30 08:45:20;;;;;;;3.27;2.73;;;18.10;99.90;;;;;;4974919;28;20557;-65
2023/09/30 08:47:47;;;;;;;2.73;2.30;;;18.10;99.90;;;;;;4974841;28;20463;-65
2023/09/30 08:50:14;;;;;;;6.70;2.70;;;18.00;99.90;;;;;;4975075;28;20463;-64
2023/09/30 08:52:43;;;;;;;3.23;2.40;;;17.90;99.90;;;;;;4975057;28;20466;-65
2023/09/30 08:55:11;;;;;;;4.00;2.80;;;17.90;99.90;;;;;;4974730;28;20554;-65
2023/09/30 08:57:41;;;;;;;4.67;2.90;;;17.80;99.90;;;;;;4974844;28;20458;-65
2023/09/30 09:00:12;;;;;;;3.27;2.60;;;17.80;99.90;;;;;;4975138;28;20458;-65
2023/09/30 09:02:39;;;;;;;3.90;3.03;;;17.80;99.90;;;;;;4974900;28;20467;-64
2023/09/30 09:05:07;;;;;;;4.30;3.00;;;17.80;99.90;;;;;;4974505;28;20454;-65
2023/09/30 09:07:34;;;;;;;5.60;2.80;;;17.60;99.90;;;;;;4974898;28;20459;-64
2023/09/30 09:10:05;;;;;;;3.57;2.70;;;17.60;99.90;;;;;;4974813;28;20517;-64
2023/09/30 09:12:32;;;;;;;4.77;3.00;;;17.50;99.90;;;;;;4974580;28;20873;-64
2023/09/30 09:15:00;;;;;;;4.90;3.00;;;17.40;99.90;;;;;;4974193;28;20982;-65
2023/09/30 09:17:42;;;;;;;3.93;2.87;;;17.40;99.90;;;;;;4974612;28;20472;-64
2023/09/30 09:20:10;;;;;;;4.37;2.90;;;17.60;99.90;;;;;;4974985;28;20467;-64
2023/09/30 09:22:41;;;;;;;4.63;3.40;;;17.90;99.90;;;;;;4974339;28;20478;-65
2023/09/30 09:25:08;;;;;;;4.37;3.40;;;18.20;99.90;;;;;;4974215;28;20471;-65
2023/09/30 09:27:36;;;;;;;4.67;3.20;;;18.30;99.90;;;;;;4974577;28;20463;-65
2023/09/30 09:30:17;;;;;;;5.70;2.93;;;18.40;99.90;;;;;;4974677;28;20463;-65
2023/09/30 09:33:00;;;;;;;3.30;2.83;;;18.30;99.90;;;;;;4983127;28;20463;-64
2023/09/30 09:35:30;;;;;;;4.17;3.20;;;18.40;99.90;;;;;;4973768;28;20466;-65
2023/09/30 09:37:59;;;;;;;3.73;2.63;;;18.60;99.90;;;;;;4974245;28;20495;-65
2023/09/30 09:40:27;;;;;;;6.73;3.30;;;19.00;99.90;;;;;;4977218;28;20481;-65
2023/09/30 09:42:55;;;;;;;4.50;3.10;;;19.20;99.90;;;;;;4973374;28;20470;-65
2023/09/30 09:45:25;;;;;;;5.30;3.67;;;19.40;99.90;;;;;;4972935;28;20563;-65
2023/09/30 09:47:53;;;;;;;4.40;2.93;;;19.50;99.90;;;;;;4972429;28;20475;-65
2023/09/30 09:50:21;;;;;;;5.50;2.77;;;19.50;99.90;;;;;;4973034;28;20463;-65
2023/09/30 09:52:50;;;;;;;4.40;3.30;;;19.50;99.90;;;;;;4973031;28;20473;-65
2023/09/30 09:55:18;;;;;;;5.10;3.30;;;19.40;99.90;;;;;;4972974;28;20478;-65
2023/09/30 09:57:45;;;;;;;4.30;3.23;;;19.40;99.90;;;;;;4972910;28;20512;-65
2023/09/30 10:00:14;;;;;;;5.23;2.90;;;19.40;99.90;;;;;;4973306;28;20472;-65
2023/09/30 10:02:42;;;;;;;4.40;2.70;;;19.60;99.90;;;;;;4981760;28;20877;-65
2023/09/30 10:05:11;;;;;;;3.60;3.30;;;19.90;99.90;;;;;;4972934;28;20470;-65
2023/09/30 10:07:42;;;;;;;3.63;3.00;;;20.20;99.90;;;;;;4973408;28;20889;-65
2023/09/30 10:10:14;;;;;;;5.73;3.20;;;20.30;99.90;;;;;;4973990;28;20827;-65
2023/09/30 10:12:42;;;;;;;7.23;3.47;;;20.40;99.90;;;;;;4982446;28;20500;-65
2023/09/30 10:15:43;;;;;;;5.37;3.43;;;20.40;99.90;;;;;;4973339;28;20530;-65
2023/09/30 10:18:12;;;;;;;4.37;3.60;;;20.50;99.90;;;;;;4973962;28;20831;-65
2023/09/30 10:20:41;;;;;;;4.30;3.90;;;20.40;99.90;;;;;;4973284;28;20483;-65
2023/09/30 10:23:20;;;;;;;4.80;2.90;;;20.20;99.90;;;;;;4973480;28;20473;-65
2023/09/30 10:25:48;;;;;;;5.60;3.53;;;20.00;99.90;;;;;;4973095;28;20464;-65
2023/09/30 10:28:38;;;;;;;4.33;2.90;;;19.90;99.90;;;;;;4973418;28;20973;-65
2023/09/30 10:31:17;;;;;;;4.93;3.27;;;19.70;99.90;;;;;;4974461;28;20491;-64
2023/09/30 10:34:23;;;;;;;4.20;3.13;;;19.60;99.90;;;;;;4982257;28;20469;-65
2023/09/30 10:36:52;;;;;;;6.50;3.50;;;19.50;99.90;;;;;;4973300;28;20465;-65
2023/09/30 10:39:56;;;;;;;6.47;3.60;;;19.50;99.90;;;;;;4973223;28;20469;-65
2023/09/30 10:42:49;;;;;;;4.50;3.00;;;19.40;99.90;;;;;;4974541;28;20861;-65
2023/09/30 10:45:43;;;;;;;6.67;3.70;;;19.40;99.90;;;;;;4973953;28;20463;-65
2023/09/30 10:48:34;;;;;;;6.43;3.20;;;19.60;99.90;;;;;;4974586;28;20464;-65
2023/09/30 10:51:20;;;;;;;5.73;3.57;;;19.90;99.90;;;;;;4972932;28;20903;-65
2023/09/30 10:53:51;;;;;;;5.20;3.70;;;20.30;99.90;;;;;;4972873;28;20462;-65
2023/09/30 10:56:18;;;;;;;4.03;3.13;;;20.40;99.90;;;;;;4978828;28;20465;-65
2023/09/30 10:58:46;;;;;;;5.33;3.03;;;20.30;99.90;;;;;;4972663;28;20547;-65
2023/09/30 11:01:14;;;;;;;5.13;3.17;;;20.20;99.90;;;;;;4973032;28;20478;-65
2023/09/30 11:03:41;;;;;;;7.67;4.10;;;20.00;99.90;;;;;;4972585;28;20961;-65
2023/09/30 11:06:13;;;;;;;4.37;3.83;;;19.90;99.90;;;;;;4972316;28;20465;-65
2023/09/30 11:08:46;;;;;;;6.50;3.43;;;19.80;99.90;;;;;;4972305;28;20465;-66
2023/09/30 11:11:14;;;;;;;5.63;3.60;;;19.70;99.90;;;;;;4972757;28;20495;-66
2023/09/30 11:13:41;;;;;;;6.67;3.70;;;19.60;99.90;;;;;;4972480;28;21119;-66
2023/09/30 11:16:08;;;;;;;4.83;3.13;;;19.50;99.90;;;;;;4972352;28;20487;-66
2023/09/30 11:18:37;;;;;;;4.77;3.00;;;19.50;99.90;;;;;;4972403;28;20889;-66
2023/09/30 11:21:06;;;;;;;3.53;2.33;;;19.40;99.90;;;;;;4972667;28;20484;-66
2023/09/30 11:23:34;;;;;;;3.37;3.07;;;19.40;99.90;;;;;;4972309;28;20843;-66
2023/09/30 11:26:01;;;;;;;5.77;3.50;;;19.30;99.90;;;;;;4972548;28;20458;-66
2023/09/30 11:28:37;;;;;;;3.93;3.10;;;19.30;99.90;;;;;;4972925;28;20547;-66
2023/09/30 11:31:06;;;;;;;3.63;3.23;;;19.50;99.90;;;;;;4972752;28;20565;-66
2023/09/30 11:33:33;;;;;;;4.83;3.13;;;19.90;99.90;;;;;;4972329;28;20545;-65
2023/09/30 11:36:03;;;;;;;7.23;3.53;;;20.20;99.90;;;;;;4972028;28;20471;-65
2023/09/30 11:38:31;;;;;;;5.07;3.30;;;20.30;99.90;;;;;;4972759;28;20906;-65
2023/09/30 11:41:05;;;;;;;4.43;3.03;;;20.40;99.90;;;;;;4972169;28;20490;-65
2023/09/30 11:43:31;;;;;;;5.27;3.63;;;20.30;99.90;;;;;;4971951;28;20582;-65
2023/09/30 11:46:08;;;;;;;5.30;3.40;;;20.30;99.90;;;;;;4971960;28;20954;-65
2023/09/30 11:48:36;;;;;;;4.40;3.50;;;20.20;99.90;;;;;;4972275;28;20472;-65
2023/09/30 11:51:04;;;;;;;3.23;2.90;;;20.00;99.90;;;;;;4986452;28;20920;-65
2023/09/30 11:53:31;;;;;;;5.97;3.70;;;20.00;99.90;;;;;;4971913;28;20464;-65
2023/09/30 11:55:58;;;;;;;6.30;3.50;;;19.90;99.90;;;;;;4971592;28;20469;-65
2023/09/30 11:58:27;;;;;;;4.20;3.60;;;19.90;99.90;;;;;;4970717;28;20819;-65
2023/09/30 12:00:59;;;;;;;4.97;4.00;;;19.80;99.90;;;;;;4970164;28;20989;-66
2023/09/30 12:03:27;;;;;;;4.50;3.43;;;19.80;99.90;;;;;;4970997;28;20536;-65
2023/09/30 12:05:55;;;;;;;5.10;3.20;;;19.90;99.90;;;;;;4969837;28;20550;-65
2023/09/30 12:08:22;;;;;;;5.07;4.20;;;19.90;99.90;;;;;;4971853;28;20483;-65
2023/09/30 12:10:48;;;;;;;5.57;3.33;;;20.00;99.90;;;;;;4972540;28;20501;-65
2023/09/30 12:13:15;;;;;;;5.63;3.33;;;20.00;99.90;;;;;;4975856;28;20492;-65
2023/09/30 12:15:44;;;;;;;4.43;3.30;;;20.30;99.90;;;;;;4975204;28;20463;-65
2023/09/30 12:18:13;;;;;;;5.17;2.80;;;20.40;99.90;;;;;;4975878;28;20548;-65
2023/09/30 12:20:41;;;;;;;5.67;3.30;;;20.50;99.90;;;;;;4975713;28;20481;-65
2023/09/30 12:23:08;;;;;;;5.23;3.73;;;20.50;99.90;;;;;;4982311;28;20839;-66
2023/09/30 12:25:35;;;;;;;7.33;3.97;;;20.50;99.90;;;;;;4974987;28;20474;-65
2023/09/30 12:28:02;;;;;;;4.63;3.30;;;20.40;99.90;;;;;;4975652;28;20934;-65
2023/09/30 12:30:31;;;;;;;5.83;3.63;;;20.40;99.90;;;;;;4975494;28;20474;-65
2023/09/30 12:32:59;;;;;;;5.47;3.50;;;20.50;99.90;;;;;;4975257;28;20489;-65
2023/09/30 12:35:26;;;;;;;5.63;3.30;;;20.70;99.90;;;;;;4975220;28;20465;-65
2023/09/30 12:37:53;;;;;;;5.03;3.20;;;21.10;99.90;;;;;;4975044;28;20843;-65
2023/09/30 12:40:20;;;;;;;7.50;4.20;;;21.30;99.90;;;;;;4975476;28;20496;-65
2023/09/30 12:42:47;;;;;;;6.60;3.87;;;21.30;99.90;;;;;;4975056;28;20829;-65
2023/09/30 12:45:13;;;;;;;6.53;3.60;;;21.40;99.90;;;;;;4974828;28;20477;-65
2023/09/30 12:47:40;;;;;;;5.43;3.57;;;21.60;99.90;;;;;;4975137;28;20466;-65
2023/09/30 12:50:09;;;;;;;8.30;3.20;;;21.90;99.90;;;;;;4975095;28;20463;-65
2023/09/30 12:52:38;;;;;;;5.73;3.80;;;22.00;99.90;;;;;;4975108;28;20494;-65
2023/09/30 12:55:05;;;;;;;4.67;3.23;;;22.10;99.90;;;;;;4974935;28;20463;-65
2023/09/30 12:57:32;;;;;;;4.60;3.20;;;22.10;99.90;;;;;;4975128;28;20846;-65
2023/09/30 12:59:59;;;;;;;5.23;3.13;;;22.20;99.90;;;;;;4974788;28;20478;-65
2023/09/30 13:02:26;;;;;;;5.27;2.97;;;22.20;99.90;;;;;;4974908;28;20489;-65
2023/09/30 13:04:54;;;;;;;5.30;3.97;;;22.10;99.90;;;;;;4974073;28;20533;-65
2023/09/30 13:07:24;;;;;;;5.00;3.30;;;22.20;99.90;;;;;;4974880;28;20474;-65
2023/09/30 13:09:50;;;;;;;4.20;2.47;;;22.20;99.90;;;;;;4974696;28;20472;-65
2023/09/30 13:12:17;;;;;;;6.17;3.90;;;22.00;99.90;;;;;;4974680;28;20491;-65
2023/09/30 13:14:44;;;;;;;5.17;3.40;;;21.80;99.90;;;;;;4973875;28;20966;-65
2023/09/30 13:17:14;;;;;;;5.93;3.60;;;21.70;99.90;;;;;;4974925;28;20475;-65
2023/09/30 13:19:41;;;;;;;5.60;3.60;;;21.60;99.90;;;;;;4974859;28;20466;-65
2023/09/30 13:22:08;;;;;;;5.57;3.00;;;21.50;99.90;;;;;;4973496;28;20482;-65
2023/09/30 13:24:39;;;;;;;4.07;2.67;;;21.30;99.90;;;;;;4973988;28;20838;-65
2023/09/30 13:27:06;;;;;;;6.20;3.43;;;21.10;99.90;;;;;;4974863;28;20463;-65
2023/09/30 13:29:33;;;;;;;4.47;2.80;;;20.90;99.90;;;;;;4974370;28;20463;-65
2023/09/30 13:31:59;;;;;;;9.43;4.07;;;20.70;99.90;;;;;;4973842;28;20493;-65
2023/09/30 13:34:26;;;;;;;3.70;3.07;;;20.70;99.90;;;;;;4973917;28;20473;-65
2023/09/30 13:36:53;;;;;;;5.70;2.73;;;20.60;99.90;;;;;;4974058;28;20476;-65
2023/09/30 13:39:20;;;;;;;4.33;3.03;;;20.70;99.90;;;;;;4974078;28;20962;-66
2023/09/30 13:41:48;;;;;;;6.47;4.07;;;20.90;99.90;;;;;;4973830;28;20487;-65
2023/09/30 13:44:15;;;;;;;7.20;3.30;;;21.10;99.90;;;;;;4974094;28;20474;-65
2023/09/30 13:46:42;;;;;;;6.00;4.20;;;21.40;99.90;;;;;;4973876;28;20475;-65
2023/09/30 13:49:09;;;;;;;5.33;3.40;;;21.60;99.90;;;;;;4974256;28;20463;-65
2023/09/30 13:51:38;;;;;;;5.77;2.90;;;21.70;99.90;;;;;;4973837;28;20491;-65
2023/09/30 13:54:07;;;;;;;5.03;3.47;;;21.80;99.90;;;;;;4973725;28;20498;-65
2023/09/30 13:56:33;;;;;;;6.07;3.20;;;21.90;99.90;;;;;;4973981;28;20493;-65
2023/09/30 13:59:02;;;;;;;7.07;3.47;;;22.00;99.90;;;;;;4973574;28;20467;-65
2023/09/30 14:01:28;;;;;;;6.93;3.30;;;22.10;99.90;;;;;;4973685;28;21030;-65
2023/09/30 14:03:57;;;;;;;5.70;3.83;;;22.20;99.90;;;;;;4973416;28;20463;-65
2023/09/30 14:06:23;;;;;;;5.23;3.97;;;22.00;99.90;;;;;;4973409;28;20496;-65
2023/09/30 14:08:50;;;;;;;4.87;3.13;;;21.70;99.90;;;;;;4973404;28;20489;-65
2023/09/30 14:11:17;;;;;;;4.40;3.67;;;21.50;99.90;;;;;;4973633;28;20495;-65
2023/09/30 14:13:44;;;;;;;3.87;3.00;;;21.20;99.90;;;;;;4973383;28;21002;-65
2023/09/30 14:16:12;;;;;;;5.07;3.43;;;21.10;99.90;;;;;;4973335;28;20467;-65
2023/09/30 14:18:39;;;;;;;5.73;3.50;;;20.90;99.90;;;;;;4973243;28;20958;-65
2023/09/30 14:21:06;;;;;;;4.93;3.23;;;20.70;99.90;;;;;;4977899;28;20914;-65
2023/09/30 14:23:32;;;;;;;5.27;3.67;;;20.70;99.90;;;;;;4978252;28;20910;-65
2023/09/30 14:26:04;;;;;;;3.90;3.40;;;20.60;99.90;;;;;;4972776;28;20479;-65
2023/09/30 14:28:31;;;;;;;3.60;2.70;;;20.50;99.90;;;;;;4973049;28;20489;-65
2023/09/30 14:30:58;;;;;;;5.00;3.20;;;20.40;99.90;;;;;;4972903;28;20520;-65
2023/09/30 14:33:26;;;;;;;6.90;3.10;;;20.40;99.90;;;;;;4972398;28;20493;-65
2023/09/30 14:35:53;;;;;;;5.50;3.20;;;20.30;99.90;;;;;;4972603;28;20464;-65
2023/09/30 14:38:19;;;;;;;4.60;3.30;;;20.20;99.90;;;;;;4973211;28;20470;-65
2023/09/30 14:40:46;;;;;;;5.13;3.23;;;20.10;99.90;;;;;;4972938;28;20493;-65
2023/09/30 14:43:13;;;;;;;4.90;3.27;;;20.00;99.90;;;;;;4972988;28;20460;-65
2023/09/30 14:45:40;;;;;;;7.50;3.90;;;19.90;99.90;;;;;;4972775;28;20832;-65
2023/09/30 14:48:07;;;;;;;4.53;2.93;;;19.90;99.90;;;;;;4972693;28;20480;-65
2023/09/30 14:50:36;;;;;;;4.70;3.10;;;19.80;99.90;;;;;;4972979;28;20829;-65
2023/09/30 14:53:04;;;;;;;5.00;3.50;;;19.80;99.90;;;;;;4972789;28;20496;-65
2023/09/30 14:55:32;;;;;;;4.60;3.00;;;19.80;99.90;;;;;;4972582;28;20944;-65
2023/09/30 14:57:59;;;;;;;4.00;2.63;;;19.90;99.90;;;;;;4972529;28;20462;-65
2023/09/30 15:00:26;;;;;;;5.20;3.63;;;19.90;99.90;;;;;;4972757;28;20464;-65
2023/09/30 15:02:54;;;;;;;7.30;3.60;;;20.00;99.90;;;;;;4972475;28;20552;-65
2023/09/30 15:05:21;;;;;;;4.93;3.27;;;20.00;99.90;;;;;;4972211;28;20532;-66
2023/09/30 15:07:49;;;;;;;5.40;3.10;;;20.00;99.90;;;;;;4972712;28;21010;-65
2023/09/30 15:10:15;;;;;;;4.97;3.23;;;20.00;99.90;;;;;;4972561;28;20470;-65
2023/09/30 15:12:42;;;;;;;4.50;3.57;;;20.10;99.90;;;;;;4972649;28;21033;-65
2023/09/30 15:15:09;;;;;;;5.57;3.30;;;20.00;99.90;;;;;;4971699;28;20470;-65
2023/09/30 15:17:36;;;;;;;4.87;3.10;;;20.00;99.90;;;;;;4972423;28;20477;-65
2023/09/30 15:20:03;;;;;;;7.30;3.70;;;19.90;99.90;;;;;;4972270;28;20464;-65
2023/09/30 15:22:32;;;;;;;5.90;3.30;;;19.90;99.90;;;;;;4972345;28;20904;-65
2023/09/30 15:25:00;;;;;;;5.03;3.77;;;19.80;99.90;;;;;;4971655;28;20854;-65
2023/09/30 15:27:27;;;;;;;4.10;3.43;;;19.80;99.90;;;;;;4972394;28;20463;-65
2023/09/30 15:29:54;;;;;;;5.93;2.90;;;19.70;99.90;;;;;;4972148;28;20849;-65
2023/09/30 15:32:21;;;;;;;5.17;3.27;;;19.60;99.90;;;;;;4972143;28;21001;-65
2023/09/30 15:34:48;;;;;;;8.30;4.50;;;19.60;99.90;;;;;;4971854;28;20895;-65
2023/09/30 15:37:15;;;;;;;5.50;4.70;;;19.50;99.90;;;;;;4971565;28;20471;-65
2023/09/30 15:39:42;;;;;;;14.13;7.97;;;19.40;99.90;;;;;;4972084;28;20490;-65
2023/09/30 15:42:11;;;;;;;10.73;5.60;;;19.40;99.90;;;;;;4975416;28;21000;-65
2023/09/30 15:44:38;;;;;;;9.03;5.97;;;19.40;99.90;;;;;;4976057;28;20908;-65
2023/09/30 15:47:07;;;;;;;7.53;4.30;;;19.40;99.90;;;;;;4970492;28;20478;-65
2023/09/30 15:49:33;;;;;;;6.43;4.17;;;19.30;99.90;;;;;;4971032;28;20469;-65
2023/09/30 15:52:00;;;;;;;3.93;3.03;;;19.40;99.90;;;;;;4970952;28;20514;-65
2023/09/30 15:54:27;;;;;;;7.73;4.50;;;19.40;99.90;;;;;;4970452;28;21031;-65
2023/09/30 15:56:54;;;;;;;4.03;3.30;;;19.50;99.90;;;;;;4971129;28;20964;-65
2023/09/30 15:59:22;;;;;;;8.83;4.47;;;19.50;99.90;;;;;;4970938;28;20472;-65
2023/09/30 16:01:48;;;;;;;7.60;4.07;;;19.50;99.90;;;;;;4971266;28;20486;-65
2023/09/30 16:04:15;;;;;;;5.73;3.67;;;19.50;99.90;;;;;;4970252;28;20521;-65
2023/09/30 16:06:42;;;;;;;6.67;3.60;;;19.50;99.90;;;;;;4971312;28;20968;-65
2023/09/30 16:09:09;;;;;;;4.83;2.87;;;19.40;99.90;;;;;;4970579;28;20475;-65
2023/09/30 16:11:35;;;;;;;6.20;3.67;;;19.30;99.90;;;;;;4971073;28;20554;-65
2023/09/30 16:14:03;;;;;;;9.07;5.50;;;19.20;99.90;;;;;;4970628;28;20495;-65
2023/09/30 16:16:31;;;;;;;9.73;6.50;;;19.20;99.90;;;;;;4970537;28;20531;-65
2023/09/30 16:18:58;;;;;;;14.50;8.10;;;19.10;99.90;;;;;;4977496;28;20556;-65
2023/09/30 16:21:25;;;;;;;12.43;8.47;;;19.10;99.90;;;;;;4975070;28;20488;-65